sensor_id;sensor_type;location;lat;lon;timestamp;P1;durP1;ratioP1;P2;durP2;ratioP2
19796;SDS011;10058;57.654;12.044;2023-08-31T00:02:00;0.20;;;0.20;;
19796;SDS011;10058;57.654;12.044;2023-08-31T00:04:26;0.10;;;0.10;;
19796;SDS011;10058;57.654;12.044;2023-08-31T00:06:51;0.20;;;0.20;;
19796;SDS011;10058;57.654;12.044;2023-08-31T00:09:17;0.10;;;0.10;;
19796;SDS011;10058;57.654;12.044;2023-08-31T00:11:43;0.20;;;0.20;;
19796;SDS011;10058;57.654;12.044;2023-08-31T00:14:09;0.10;;;0.10;;
19796;SDS011;10058;57.654;12.044;2023-08-31T00:16:34;0.20;;;0.20;;
19796;SDS011;10058;57.654;12.044;2023-08-31T00:19:01;0.10;;;0.10;;
19796;SDS011;10058;57.654;12.044;2023-08-31T00:21:27;0.20;;;0.20;;
19796;SDS011;10058;57.654;12.044;2023-08-31T00:23:52;0.10;;;0.10;;
19796;SDS011;10058;57.654;12.044;2023-08-31T00:26:19;0.20;;;0.20;;
19796;SDS011;10058;57.654;12.044;2023-08-31T00:28:44;0.10;;;0.10;;
19796;SDS011;10058;57.654;12.044;2023-08-31T00:31:10;0.20;;;0.20;;
19796;SDS011;10058;57.654;12.044;2023-08-31T00:33:35;0.10;;;0.10;;
19796;SDS011;10058;57.654;12.044;2023-08-31T00:36:02;0.20;;;0.20;;
19796;SDS011;10058;57.654;12.044;2023-08-31T00:38:28;0.10;;;0.10;;
19796;SDS011;10058;57.654;12.044;2023-08-31T00:40:54;0.20;;;0.20;;
19796;SDS011;10058;57.654;12.044;2023-08-31T00:43:20;0.10;;;0.10;;
19796;SDS011;10058;57.654;12.044;2023-08-31T00:45:48;0.20;;;0.20;;
19796;SDS011;10058;57.654;12.044;2023-08-31T00:48:16;0.10;;;0.10;;
19796;SDS011;10058;57.654;12.044;2023-08-31T00:50:43;0.20;;;0.20;;
19796;SDS011;10058;57.654;12.044;2023-08-31T00:53:10;0.10;;;0.10;;
19796;SDS011;10058;57.654;12.044;2023-08-31T00:55:35;0.10;;;0.10;;
19796;SDS011;10058;57.654;12.044;2023-08-31T00:58:01;0.10;;;0.10;;
19796;SDS011;10058;57.654;12.044;2023-08-31T01:00:47;0.17;;;0.17;;
19796;SDS011;10058;57.654;12.044;2023-08-31T01:03:23;0.20;;;0.20;;
19796;SDS011;10058;57.654;12.044;2023-08-31T01:11:31;0.20;;;0.20;;
19796;SDS011;10058;57.654;12.044;2023-08-31T01:14:11;0.03;;;0.03;;
19796;SDS011;10058;57.654;12.044;2023-08-31T01:16:41;0.10;;;0.10;;
19796;SDS011;10058;57.654;12.044;2023-08-31T01:22:09;0.10;;;0.10;;
19796;SDS011;10058;57.654;12.044;2023-08-31T01:24:38;0.10;;;0.10;;
19796;SDS011;10058;57.654;12.044;2023-08-31T01:27:04;0.10;;;0.10;;
19796;SDS011;10058;57.654;12.044;2023-08-31T01:29:30;0.10;;;0.10;;
19796;SDS011;10058;57.654;12.044;2023-08-31T01:31:55;0.13;;;0.13;;
19796;SDS011;10058;57.654;12.044;2023-08-31T01:34:21;0.10;;;0.10;;
19796;SDS011;10058;57.654;12.044;2023-08-31T01:36:46;0.20;;;0.20;;
19796;SDS011;10058;57.654;12.044;2023-08-31T01:39:20;0.10;;;0.10;;
19796;SDS011;10058;57.654;12.044;2023-08-31T01:41:54;0.20;;;0.20;;
19796;SDS011;10058;57.654;12.044;2023-08-31T01:44:22;0.10;;;0.10;;
19796;SDS011;10058;57.654;12.044;2023-08-31T01:46:51;0.20;;;0.20;;
19796;SDS011;10058;57.654;12.044;2023-08-31T01:49:19;0.10;;;0.10;;
19796;SDS011;10058;57.654;12.044;2023-08-31T01:51:45;0.10;;;0.10;;
19796;SDS011;10058;57.654;12.044;2023-08-31T01:54:10;0.20;;;0.20;;
19796;SDS011;10058;57.654;12.044;2023-08-31T01:56:35;0.10;;;0.10;;
19796;SDS011;10058;57.654;12.044;2023-08-31T01:59:01;0.20;;;0.20;;
19796;SDS011;10058;57.654;12.044;2023-08-31T02:11:09;0.20;;;0.20;;
19796;SDS011;10058;57.654;12.044;2023-08-31T02:13:34;0.10;;;0.10;;
19796;SDS011;10058;57.654;12.044;2023-08-31T02:15:59;0.10;;;0.10;;
19796;SDS011;10058;57.654;12.044;2023-08-31T02:18:24;0.20;;;0.20;;
19796;SDS011;10058;57.654;12.044;2023-08-31T02:20:51;0.10;;;0.10;;
19796;SDS011;10058;57.654;12.044;2023-08-31T02:23:18;0.20;;;0.20;;
19796;SDS011;10058;57.654;12.044;2023-08-31T02:25:43;0.10;;;0.10;;
19796;SDS011;10058;57.654;12.044;2023-08-31T02:28:08;0.10;;;0.10;;
19796;SDS011;10058;57.654;12.044;2023-08-31T02:30:34;0.20;;;0.20;;
19796;SDS011;10058;57.654;12.044;2023-08-31T02:32:59;0.10;;;0.10;;
19796;SDS011;10058;57.654;12.044;2023-08-31T02:35:24;0.20;;;0.20;;
19796;SDS011;10058;57.654;12.044;2023-08-31T02:37:49;0.10;;;0.10;;
19796;SDS011;10058;57.654;12.044;2023-08-31T02:40:15;0.20;;;0.20;;
19796;SDS011;10058;57.654;12.044;2023-08-31T02:42:40;0.10;;;0.10;;
19796;SDS011;10058;57.654;12.044;2023-08-31T02:45:06;0.10;;;0.10;;
19796;SDS011;10058;57.654;12.044;2023-08-31T02:47:31;0.20;;;0.20;;
19796;SDS011;10058;57.654;12.044;2023-08-31T02:49:56;0.03;;;0.03;;
19796;SDS011;10058;57.654;12.044;2023-08-31T02:52:22;0.20;;;0.20;;
19796;SDS011;10058;57.654;12.044;2023-08-31T02:54:47;0.10;;;0.10;;
19796;SDS011;10058;57.654;12.044;2023-08-31T02:57:13;0.20;;;0.20;;
19796;SDS011;10058;57.654;12.044;2023-08-31T02:59:40;0.10;;;0.10;;
19796;SDS011;10058;57.654;12.044;2023-08-31T03:02:07;0.20;;;0.20;;
19796;SDS011;10058;57.654;12.044;2023-08-31T03:04:33;0.10;;;0.10;;
19796;SDS011;10058;57.654;12.044;2023-08-31T03:06:58;0.10;;;0.10;;
19796;SDS011;10058;57.654;12.044;2023-08-31T03:09:23;0.10;;;0.10;;
19796;SDS011;10058;57.654;12.044;2023-08-31T03:11:49;0.10;;;0.10;;
19796;SDS011;10058;57.654;12.044;2023-08-31T03:14:14;0.20;;;0.20;;
19796;SDS011;10058;57.654;12.044;2023-08-31T03:16:39;0.00;;;0.00;;
19796;SDS011;10058;57.654;12.044;2023-08-31T03:19:05;0.10;;;0.10;;
19796;SDS011;10058;57.654;12.044;2023-08-31T03:21:30;0.10;;;0.10;;
19796;SDS011;10058;57.654;12.044;2023-08-31T03:23:56;0.20;;;0.20;;
19796;SDS011;10058;57.654;12.044;2023-08-31T03:26:21;0.10;;;0.10;;
19796;SDS011;10058;57.654;12.044;2023-08-31T03:28:46;0.20;;;0.20;;
19796;SDS011;10058;57.654;12.044;2023-08-31T03:31:12;0.10;;;0.10;;
19796;SDS011;10058;57.654;12.044;2023-08-31T03:33:37;0.10;;;0.10;;
19796;SDS011;10058;57.654;12.044;2023-08-31T03:36:03;0.10;;;0.10;;
19796;SDS011;10058;57.654;12.044;2023-08-31T03:38:30;0.10;;;0.10;;
19796;SDS011;10058;57.654;12.044;2023-08-31T03:40:56;0.10;;;0.10;;
19796;SDS011;10058;57.654;12.044;2023-08-31T03:43:22;0.20;;;0.20;;
19796;SDS011;10058;57.654;12.044;2023-08-31T03:45:48;0.10;;;0.10;;
19796;SDS011;10058;57.654;12.044;2023-08-31T03:48:14;0.10;;;0.10;;
19796;SDS011;10058;57.654;12.044;2023-08-31T03:50:39;0.10;;;0.10;;
19796;SDS011;10058;57.654;12.044;2023-08-31T03:53:04;0.10;;;0.10;;
19796;SDS011;10058;57.654;12.044;2023-08-31T03:55:30;0.10;;;0.10;;
19796;SDS011;10058;57.654;12.044;2023-08-31T03:57:55;0.10;;;0.10;;
19796;SDS011;10058;57.654;12.044;2023-08-31T04:00:20;0.10;;;0.10;;
19796;SDS011;10058;57.654;12.044;2023-08-31T04:02:46;0.10;;;0.10;;
19796;SDS011;10058;57.654;12.044;2023-08-31T04:05:11;0.17;;;0.17;;
19796;SDS011;10058;57.654;12.044;2023-08-31T04:07:36;0.10;;;0.10;;
19796;SDS011;10058;57.654;12.044;2023-08-31T04:10:02;0.10;;;0.10;;
19796;SDS011;10058;57.654;12.044;2023-08-31T04:12:28;0.10;;;0.10;;
19796;SDS011;10058;57.654;12.044;2023-08-31T04:14:55;0.05;;;0.05;;
19796;SDS011;10058;57.654;12.044;2023-08-31T04:17:20;0.20;;;0.20;;
19796;SDS011;10058;57.654;12.044;2023-08-31T04:19:46;0.10;;;0.10;;
19796;SDS011;10058;57.654;12.044;2023-08-31T04:22:11;0.17;;;0.17;;
19796;SDS011;10058;57.654;12.044;2023-08-31T04:24:36;0.10;;;0.10;;
19796;SDS011;10058;57.654;12.044;2023-08-31T04:27:01;0.20;;;0.20;;
19796;SDS011;10058;57.654;12.044;2023-08-31T04:29:27;0.10;;;0.10;;
19796;SDS011;10058;57.654;12.044;2023-08-31T04:31:53;0.20;;;0.20;;
19796;SDS011;10058;57.654;12.044;2023-08-31T04:34:19;0.10;;;0.10;;
19796;SDS011;10058;57.654;12.044;2023-08-31T04:36:44;0.10;;;0.10;;
19796;SDS011;10058;57.654;12.044;2023-08-31T04:39:10;0.10;;;0.10;;
19796;SDS011;10058;57.654;12.044;2023-08-31T04:41:36;0.08;;;0.08;;
19796;SDS011;10058;57.654;12.044;2023-08-31T04:44:01;0.13;;;0.13;;
19796;SDS011;10058;57.654;12.044;2023-08-31T04:46:26;0.20;;;0.20;;
19796;SDS011;10058;57.654;12.044;2023-08-31T04:48:52;0.10;;;0.10;;
19796;SDS011;10058;57.654;12.044;2023-08-31T04:54:12;0.10;;;0.10;;
19796;SDS011;10058;57.654;12.044;2023-08-31T04:56:37;0.20;;;0.20;;
19796;SDS011;10058;57.654;12.044;2023-08-31T04:59:02;0.20;;;0.20;;
19796;SDS011;10058;57.654;12.044;2023-08-31T05:01:28;0.20;;;0.20;;
19796;SDS011;10058;57.654;12.044;2023-08-31T05:03:54;0.13;;;0.13;;
19796;SDS011;10058;57.654;12.044;2023-08-31T05:06:19;0.20;;;0.20;;
19796;SDS011;10058;57.654;12.044;2023-08-31T05:08:46;0.20;;;0.20;;
19796;SDS011;10058;57.654;12.044;2023-08-31T05:11:14;0.10;;;0.10;;
19796;SDS011;10058;57.654;12.044;2023-08-31T05:13:40;0.20;;;0.20;;
19796;SDS011;10058;57.654;12.044;2023-08-31T05:16:07;0.20;;;0.20;;
19796;SDS011;10058;57.654;12.044;2023-08-31T05:18:33;0.20;;;0.20;;
19796;SDS011;10058;57.654;12.044;2023-08-31T05:20:58;0.20;;;0.20;;
19796;SDS011;10058;57.654;12.044;2023-08-31T05:23:24;0.20;;;0.20;;
19796;SDS011;10058;57.654;12.044;2023-08-31T05:25:49;0.20;;;0.20;;
19796;SDS011;10058;57.654;12.044;2023-08-31T05:28:14;0.20;;;0.20;;
19796;SDS011;10058;57.654;12.044;2023-08-31T05:30:47;70.85;;;58.03;;
19796;SDS011;10058;57.654;12.044;2023-08-31T05:33:14;0.20;;;0.20;;
19796;SDS011;10058;57.654;12.044;2023-08-31T05:35:40;317.10;;;162.80;;
19796;SDS011;10058;57.654;12.044;2023-08-31T05:38:05;353.73;;;110.60;;
19796;SDS011;10058;57.654;12.044;2023-08-31T05:40:30;306.37;;;113.83;;
19796;SDS011;10058;57.654;12.044;2023-08-31T05:42:56;287.17;;;174.10;;
19796;SDS011;10058;57.654;12.044;2023-08-31T05:45:21;384.77;;;137.50;;
19796;SDS011;10058;57.654;12.044;2023-08-31T05:47:46;452.42;;;316.00;;
19796;SDS011;10058;57.654;12.044;2023-08-31T05:50:12;466.37;;;392.83;;
19796;SDS011;10058;57.654;12.044;2023-08-31T05:52:37;508.70;;;455.27;;
19796;SDS011;10058;57.654;12.044;2023-08-31T05:55:03;533.57;;;479.27;;
19796;SDS011;10058;57.654;12.044;2023-08-31T05:57:28;470.83;;;418.65;;
19796;SDS011;10058;57.654;12.044;2023-08-31T05:59:54;497.97;;;444.17;;
19796;SDS011;10058;57.654;12.044;2023-08-31T06:02:19;619.13;;;562.60;;
19796;SDS011;10058;57.654;12.044;2023-08-31T06:04:44;517.23;;;463.57;;
19796;SDS011;10058;57.654;12.044;2023-08-31T06:07:10;580.72;;;525.45;;
19796;SDS011;10058;57.654;12.044;2023-08-31T06:09:35;628.93;;;572.33;;
19796;SDS011;10058;57.654;12.044;2023-08-31T06:12:00;590.40;;;535.17;;
19796;SDS011;10058;57.654;12.044;2023-08-31T06:14:26;554.10;;;499.97;;
19796;SDS011;10058;57.654;12.044;2023-08-31T06:16:51;630.43;;;573.93;;
19796;SDS011;10058;57.654;12.044;2023-08-31T06:19:17;577.47;;;522.60;;
19796;SDS011;10058;57.654;12.044;2023-08-31T06:21:42;561.37;;;506.60;;
19796;SDS011;10058;57.654;12.044;2023-08-31T06:24:08;695.47;;;636.77;;
19796;SDS011;10058;57.654;12.044;2023-08-31T06:26:38;671.40;;;613.70;;
19796;SDS011;10058;57.654;12.044;2023-08-31T06:29:03;614.58;;;558.72;;
19796;SDS011;10058;57.654;12.044;2023-08-31T06:31:29;598.43;;;542.77;;
19796;SDS011;10058;57.654;12.044;2023-08-31T06:33:54;596.57;;;541.07;;
19796;SDS011;10058;57.654;12.044;2023-08-31T06:38:45;123.67;;;44.13;;
19796;SDS011;10058;57.654;12.044;2023-08-31T06:41:10;0.15;;;0.15;;
19796;SDS011;10058;57.654;12.044;2023-08-31T06:43:35;0.10;;;0.10;;
19796;SDS011;10058;57.654;12.044;2023-08-31T06:46:01;0.10;;;0.10;;
19796;SDS011;10058;57.654;12.044;2023-08-31T06:48:26;0.10;;;0.10;;
19796;SDS011;10058;57.654;12.044;2023-08-31T06:50:51;0.10;;;0.10;;
19796;SDS011;10058;57.654;12.044;2023-08-31T06:53:17;0.10;;;0.10;;
19796;SDS011;10058;57.654;12.044;2023-08-31T06:55:42;0.20;;;0.20;;
19796;SDS011;10058;57.654;12.044;2023-08-31T06:58:07;0.10;;;0.10;;
19796;SDS011;10058;57.654;12.044;2023-08-31T07:00:33;0.20;;;0.20;;
19796;SDS011;10058;57.654;12.044;2023-08-31T07:02:58;0.10;;;0.10;;
19796;SDS011;10058;57.654;12.044;2023-08-31T07:05:27;0.10;;;0.10;;
19796;SDS011;10058;57.654;12.044;2023-08-31T07:07:54;0.10;;;0.10;;
19796;SDS011;10058;57.654;12.044;2023-08-31T07:10:20;0.10;;;0.10;;
19796;SDS011;10058;57.654;12.044;2023-08-31T07:12:46;0.10;;;0.10;;
19796;SDS011;10058;57.654;12.044;2023-08-31T07:15:12;0.10;;;0.10;;
19796;SDS011;10058;57.654;12.044;2023-08-31T07:17:37;0.10;;;0.10;;
19796;SDS011;10058;57.654;12.044;2023-08-31T07:20:02;0.10;;;0.10;;
19796;SDS011;10058;57.654;12.044;2023-08-31T07:22:30;0.10;;;0.10;;
19796;SDS011;10058;57.654;12.044;2023-08-31T07:24:57;0.10;;;0.10;;
19796;SDS011;10058;57.654;12.044;2023-08-31T07:27:22;0.10;;;0.10;;
19796;SDS011;10058;57.654;12.044;2023-08-31T07:29:48;0.10;;;0.10;;
19796;SDS011;10058;57.654;12.044;2023-08-31T07:32:13;0.10;;;0.10;;
19796;SDS011;10058;57.654;12.044;2023-08-31T07:34:38;0.10;;;0.10;;
19796;SDS011;10058;57.654;12.044;2023-08-31T07:37:03;0.10;;;0.10;;
19796;SDS011;10058;57.654;12.044;2023-08-31T07:39:29;0.10;;;0.10;;
19796;SDS011;10058;57.654;12.044;2023-08-31T07:41:54;0.10;;;0.10;;
19796;SDS011;10058;57.654;12.044;2023-08-31T07:44:19;0.10;;;0.10;;
19796;SDS011;10058;57.654;12.044;2023-08-31T07:46:45;0.10;;;0.10;;
19796;SDS011;10058;57.654;12.044;2023-08-31T07:49:10;0.10;;;0.10;;
19796;SDS011;10058;57.654;12.044;2023-08-31T07:51:35;0.10;;;0.10;;
19796;SDS011;10058;57.654;12.044;2023-08-31T07:54:00;0.10;;;0.10;;
19796;SDS011;10058;57.654;12.044;2023-08-31T07:56:28;0.10;;;0.10;;
19796;SDS011;10058;57.654;12.044;2023-08-31T07:58:53;0.10;;;0.10;;
19796;SDS011;10058;57.654;12.044;2023-08-31T08:01:19;0.10;;;0.10;;
19796;SDS011;10058;57.654;12.044;2023-08-31T08:03:44;0.10;;;0.10;;
19796;SDS011;10058;57.654;12.044;2023-08-31T08:06:09;0.10;;;0.10;;
19796;SDS011;10058;57.654;12.044;2023-08-31T08:08:34;0.10;;;0.10;;
19796;SDS011;10058;57.654;12.044;2023-08-31T08:11:00;0.10;;;0.10;;
19796;SDS011;10058;57.654;12.044;2023-08-31T08:13:25;0.10;;;0.10;;
19796;SDS011;10058;57.654;12.044;2023-08-31T08:15:50;0.10;;;0.10;;
19796;SDS011;10058;57.654;12.044;2023-08-31T08:18:16;0.10;;;0.10;;
19796;SDS011;10058;57.654;12.044;2023-08-31T08:20:41;0.10;;;0.10;;
19796;SDS011;10058;57.654;12.044;2023-08-31T08:23:06;0.10;;;0.10;;
19796;SDS011;10058;57.654;12.044;2023-08-31T08:25:32;0.10;;;0.10;;
19796;SDS011;10058;57.654;12.044;2023-08-31T08:27:57;0.10;;;0.10;;
19796;SDS011;10058;57.654;12.044;2023-08-31T08:30:23;0.10;;;0.10;;
19796;SDS011;10058;57.654;12.044;2023-08-31T08:32:48;0.10;;;0.10;;
19796;SDS011;10058;57.654;12.044;2023-08-31T08:35:13;0.07;;;0.07;;
19796;SDS011;10058;57.654;12.044;2023-08-31T08:37:39;0.10;;;0.10;;
19796;SDS011;10058;57.654;12.044;2023-08-31T08:40:04;0.10;;;0.10;;
19796;SDS011;10058;57.654;12.044;2023-08-31T08:42:30;0.10;;;0.10;;
19796;SDS011;10058;57.654;12.044;2023-08-31T08:44:58;0.10;;;0.10;;
19796;SDS011;10058;57.654;12.044;2023-08-31T08:47:26;0.05;;;0.05;;
19796;SDS011;10058;57.654;12.044;2023-08-31T08:49:52;0.10;;;0.10;;
19796;SDS011;10058;57.654;12.044;2023-08-31T08:52:18;0.00;;;0.00;;
19796;SDS011;10058;57.654;12.044;2023-08-31T08:54:44;0.10;;;0.10;;
19796;SDS011;10058;57.654;12.044;2023-08-31T08:57:10;0.00;;;0.00;;
19796;SDS011;10058;57.654;12.044;2023-08-31T08:59:35;0.10;;;0.10;;
19796;SDS011;10058;57.654;12.044;2023-08-31T09:02:00;0.00;;;0.00;;
19796;SDS011;10058;57.654;12.044;2023-08-31T09:04:25;0.10;;;0.10;;
19796;SDS011;10058;57.654;12.044;2023-08-31T09:06:51;0.10;;;0.10;;
19796;SDS011;10058;57.654;12.044;2023-08-31T09:09:17;0.10;;;0.10;;
19796;SDS011;10058;57.654;12.044;2023-08-31T09:11:42;0.10;;;0.10;;
19796;SDS011;10058;57.654;12.044;2023-08-31T09:14:17;0.00;;;0.00;;
19796;SDS011;10058;57.654;12.044;2023-08-31T09:16:47;0.10;;;0.10;;
19796;SDS011;10058;57.654;12.044;2023-08-31T09:19:21;0.10;;;0.10;;
19796;SDS011;10058;57.654;12.044;2023-08-31T09:21:51;0.10;;;0.10;;
19796;SDS011;10058;57.654;12.044;2023-08-31T09:24:17;0.08;;;0.08;;
19796;SDS011;10058;57.654;12.044;2023-08-31T09:26:58;0.10;;;0.10;;
19796;SDS011;10058;57.654;12.044;2023-08-31T09:29:24;0.10;;;0.10;;
19796;SDS011;10058;57.654;12.044;2023-08-31T09:31:51;0.08;;;0.08;;
19796;SDS011;10058;57.654;12.044;2023-08-31T09:34:17;0.10;;;0.10;;
19796;SDS011;10058;57.654;12.044;2023-08-31T09:36:43;0.10;;;0.10;;
19796;SDS011;10058;57.654;12.044;2023-08-31T09:39:09;0.00;;;0.00;;
19796;SDS011;10058;57.654;12.044;2023-08-31T09:41:51;0.10;;;0.10;;
19796;SDS011;10058;57.654;12.044;2023-08-31T09:44:17;0.10;;;0.10;;
19796;SDS011;10058;57.654;12.044;2023-08-31T09:46:44;0.10;;;0.10;;
19796;SDS011;10058;57.654;12.044;2023-08-31T09:49:14;0.10;;;0.10;;
19796;SDS011;10058;57.654;12.044;2023-08-31T09:51:46;0.08;;;0.08;;
19796;SDS011;10058;57.654;12.044;2023-08-31T09:54:14;0.05;;;0.05;;
19796;SDS011;10058;57.654;12.044;2023-08-31T09:56:42;0.10;;;0.10;;
19796;SDS011;10058;57.654;12.044;2023-08-31T09:59:08;0.10;;;0.10;;
19796;SDS011;10058;57.654;12.044;2023-08-31T10:01:35;0.10;;;0.10;;
19796;SDS011;10058;57.654;12.044;2023-08-31T10:04:00;0.10;;;0.10;;
19796;SDS011;10058;57.654;12.044;2023-08-31T10:06:27;0.10;;;0.10;;
19796;SDS011;10058;57.654;12.044;2023-08-31T10:08:54;0.10;;;0.10;;
19796;SDS011;10058;57.654;12.044;2023-08-31T10:11:20;0.03;;;0.03;;
19796;SDS011;10058;57.654;12.044;2023-08-31T10:13:47;0.00;;;0.00;;
19796;SDS011;10058;57.654;12.044;2023-08-31T10:16:14;0.10;;;0.10;;
19796;SDS011;10058;57.654;12.044;2023-08-31T10:18:40;0.10;;;0.10;;
19796;SDS011;10058;57.654;12.044;2023-08-31T10:21:06;0.10;;;0.10;;
19796;SDS011;10058;57.654;12.044;2023-08-31T10:23:31;0.10;;;0.10;;
19796;SDS011;10058;57.654;12.044;2023-08-31T10:28:23;0.10;;;0.10;;
19796;SDS011;10058;57.654;12.044;2023-08-31T10:31:02;0.10;;;0.10;;
19796;SDS011;10058;57.654;12.044;2023-08-31T10:33:33;0.10;;;0.10;;
19796;SDS011;10058;57.654;12.044;2023-08-31T10:36:15;0.00;;;0.00;;
19796;SDS011;10058;57.654;12.044;2023-08-31T10:38:42;0.10;;;0.10;;
19796;SDS011;10058;57.654;12.044;2023-08-31T17:13:54;0.10;;;0.10;;
19796;SDS011;10058;57.654;12.044;2023-08-31T17:16:19;0.20;;;0.20;;
19796;SDS011;10058;57.654;12.044;2023-08-31T17:18:44;0.10;;;0.10;;
19796;SDS011;10058;57.654;12.044;2023-08-31T17:21:10;0.10;;;0.10;;
19796;SDS011;10058;57.654;12.044;2023-08-31T17:23:35;0.10;;;0.10;;
19796;SDS011;10058;57.654;12.044;2023-08-31T17:26:01;0.10;;;0.10;;
19796;SDS011;10058;57.654;12.044;2023-08-31T17:28:27;0.10;;;0.10;;
19796;SDS011;10058;57.654;12.044;2023-08-31T17:30:52;0.10;;;0.10;;
19796;SDS011;10058;57.654;12.044;2023-08-31T17:33:20;0.15;;;0.15;;
19796;SDS011;10058;57.654;12.044;2023-08-31T17:35:47;0.10;;;0.10;;
19796;SDS011;10058;57.654;12.044;2023-08-31T17:38:12;0.10;;;0.10;;
19796;SDS011;10058;57.654;12.044;2023-08-31T17:40:40;0.10;;;0.10;;
19796;SDS011;10058;57.654;12.044;2023-08-31T17:43:07;0.10;;;0.10;;
19796;SDS011;10058;57.654;12.044;2023-08-31T17:45:32;0.10;;;0.10;;
19796;SDS011;10058;57.654;12.044;2023-08-31T17:47:57;0.10;;;0.10;;
19796;SDS011;10058;57.654;12.044;2023-08-31T17:50:22;0.10;;;0.10;;
19796;SDS011;10058;57.654;12.044;2023-08-31T17:52:49;0.20;;;0.20;;
19796;SDS011;10058;57.654;12.044;2023-08-31T17:55:14;0.10;;;0.10;;
19796;SDS011;10058;57.654;12.044;2023-08-31T17:57:40;0.10;;;0.10;;
19796;SDS011;10058;57.654;12.044;2023-08-31T18:00:07;0.10;;;0.10;;
19796;SDS011;10058;57.654;12.044;2023-08-31T18:02:33;0.00;;;0.00;;
19796;SDS011;10058;57.654;12.044;2023-08-31T18:04:58;0.10;;;0.10;;
19796;SDS011;10058;57.654;12.044;2023-08-31T18:07:23;0.10;;;0.10;;
19796;SDS011;10058;57.654;12.044;2023-08-31T18:09:48;0.10;;;0.10;;
19796;SDS011;10058;57.654;12.044;2023-08-31T18:12:14;0.10;;;0.10;;
19796;SDS011;10058;57.654;12.044;2023-08-31T18:14:39;0.10;;;0.10;;
19796;SDS011;10058;57.654;12.044;2023-08-31T18:17:06;0.10;;;0.10;;
19796;SDS011;10058;57.654;12.044;2023-08-31T18:19:31;0.10;;;0.10;;
19796;SDS011;10058;57.654;12.044;2023-08-31T18:21:59;0.00;;;0.00;;
19796;SDS011;10058;57.654;12.044;2023-08-31T18:24:25;0.03;;;0.03;;
19796;SDS011;10058;57.654;12.044;2023-08-31T18:26:51;0.10;;;0.10;;
19796;SDS011;10058;57.654;12.044;2023-08-31T18:29:16;0.10;;;0.10;;
19796;SDS011;10058;57.654;12.044;2023-08-31T18:31:42;0.10;;;0.10;;
19796;SDS011;10058;57.654;12.044;2023-08-31T18:34:07;0.10;;;0.10;;
19796;SDS011;10058;57.654;12.044;2023-08-31T18:36:33;0.10;;;0.10;;
19796;SDS011;10058;57.654;12.044;2023-08-31T18:38:59;0.10;;;0.10;;
19796;SDS011;10058;57.654;12.044;2023-08-31T18:41:24;0.10;;;0.10;;
19796;SDS011;10058;57.654;12.044;2023-08-31T18:43:50;0.03;;;0.03;;
19796;SDS011;10058;57.654;12.044;2023-08-31T18:46:15;0.10;;;0.10;;
19796;SDS011;10058;57.654;12.044;2023-08-31T18:48:40;0.10;;;0.10;;
19796;SDS011;10058;57.654;12.044;2023-08-31T18:51:05;0.17;;;0.17;;
19796;SDS011;10058;57.654;12.044;2023-08-31T18:53:31;0.10;;;0.10;;
19796;SDS011;10058;57.654;12.044;2023-08-31T18:56:00;0.10;;;0.10;;
19796;SDS011;10058;57.654;12.044;2023-08-31T18:58:28;0.10;;;0.10;;
19796;SDS011;10058;57.654;12.044;2023-08-31T19:00:54;0.00;;;0.00;;
19796;SDS011;10058;57.654;12.044;2023-08-31T19:03:21;0.10;;;0.10;;
19796;SDS011;10058;57.654;12.044;2023-08-31T19:05:47;0.10;;;0.10;;
19796;SDS011;10058;57.654;12.044;2023-08-31T19:08:15;0.10;;;0.10;;
19796;SDS011;10058;57.654;12.044;2023-08-31T19:10:41;0.10;;;0.10;;
19796;SDS011;10058;57.654;12.044;2023-08-31T19:13:07;0.10;;;0.10;;
19796;SDS011;10058;57.654;12.044;2023-08-31T19:15:33;0.10;;;0.10;;
19796;SDS011;10058;57.654;12.044;2023-08-31T19:18:03;0.08;;;0.08;;
19796;SDS011;10058;57.654;12.044;2023-08-31T19:20:28;0.03;;;0.03;;
19796;SDS011;10058;57.654;12.044;2023-08-31T19:22:54;0.10;;;0.10;;
19796;SDS011;10058;57.654;12.044;2023-08-31T19:25:19;0.10;;;0.10;;
19796;SDS011;10058;57.654;12.044;2023-08-31T19:27:45;0.10;;;0.10;;
19796;SDS011;10058;57.654;12.044;2023-08-31T19:30:10;0.10;;;0.10;;
19796;SDS011;10058;57.654;12.044;2023-08-31T19:32:36;0.07;;;0.07;;
19796;SDS011;10058;57.654;12.044;2023-08-31T19:35:01;0.10;;;0.10;;
19796;SDS011;10058;57.654;12.044;2023-08-31T19:37:33;0.10;;;0.10;;
19796;SDS011;10058;57.654;12.044;2023-08-31T19:39:59;0.10;;;0.10;;
19796;SDS011;10058;57.654;12.044;2023-08-31T19:42:25;0.10;;;0.10;;
19796;SDS011;10058;57.654;12.044;2023-08-31T19:44:51;0.10;;;0.10;;
19796;SDS011;10058;57.654;12.044;2023-08-31T19:47:16;0.05;;;0.05;;
19796;SDS011;10058;57.654;12.044;2023-08-31T19:49:41;0.10;;;0.10;;
19796;SDS011;10058;57.654;12.044;2023-08-31T19:52:06;0.10;;;0.10;;
19796;SDS011;10058;57.654;12.044;2023-08-31T19:54:32;0.13;;;0.13;;
19796;SDS011;10058;57.654;12.044;2023-08-31T19:56:57;0.10;;;0.10;;
19796;SDS011;10058;57.654;12.044;2023-08-31T19:59:22;0.10;;;0.10;;
19796;SDS011;10058;57.654;12.044;2023-08-31T20:01:47;0.00;;;0.00;;
19796;SDS011;10058;57.654;12.044;2023-08-31T20:04:13;0.10;;;0.10;;
19796;SDS011;10058;57.654;12.044;2023-08-31T20:06:38;0.10;;;0.10;;
19796;SDS011;10058;57.654;12.044;2023-08-31T20:09:03;0.10;;;0.10;;
19796;SDS011;10058;57.654;12.044;2023-08-31T20:11:29;0.10;;;0.10;;
19796;SDS011;10058;57.654;12.044;2023-08-31T20:13:54;0.03;;;0.03;;
19796;SDS011;10058;57.654;12.044;2023-08-31T20:16:22;0.10;;;0.10;;
19796;SDS011;10058;57.654;12.044;2023-08-31T20:18:48;0.10;;;0.10;;
19796;SDS011;10058;57.654;12.044;2023-08-31T20:21:13;0.13;;;0.13;;
19796;SDS011;10058;57.654;12.044;2023-08-31T20:23:40;0.10;;;0.10;;
19796;SDS011;10058;57.654;12.044;2023-08-31T20:26:06;0.00;;;0.00;;
19796;SDS011;10058;57.654;12.044;2023-08-31T20:28:31;0.10;;;0.10;;
19796;SDS011;10058;57.654;12.044;2023-08-31T20:30:56;0.00;;;0.00;;
19796;SDS011;10058;57.654;12.044;2023-08-31T20:33:25;0.10;;;0.10;;
19796;SDS011;10058;57.654;12.044;2023-08-31T20:36:01;0.10;;;0.10;;
19796;SDS011;10058;57.654;12.044;2023-08-31T20:38:29;0.10;;;0.10;;
19796;SDS011;10058;57.654;12.044;2023-08-31T20:40:54;0.10;;;0.10;;
19796;SDS011;10058;57.654;12.044;2023-08-31T20:43:21;0.10;;;0.10;;
19796;SDS011;10058;57.654;12.044;2023-08-31T20:45:47;0.10;;;0.10;;
19796;SDS011;10058;57.654;12.044;2023-08-31T20:48:13;0.10;;;0.10;;
19796;SDS011;10058;57.654;12.044;2023-08-31T20:50:38;0.10;;;0.10;;
19796;SDS011;10058;57.654;12.044;2023-08-31T20:53:04;0.10;;;0.10;;
19796;SDS011;10058;57.654;12.044;2023-08-31T20:55:29;0.10;;;0.10;;
19796;SDS011;10058;57.654;12.044;2023-08-31T20:57:55;0.10;;;0.10;;
19796;SDS011;10058;57.654;12.044;2023-08-31T21:00:22;0.10;;;0.10;;
19796;SDS011;10058;57.654;12.044;2023-08-31T21:02:48;0.10;;;0.10;;
19796;SDS011;10058;57.654;12.044;2023-08-31T21:05:13;0.10;;;0.10;;
19796;SDS011;10058;57.654;12.044;2023-08-31T21:07:39;0.10;;;0.10;;
19796;SDS011;10058;57.654;12.044;2023-08-31T21:10:04;0.10;;;0.10;;
19796;SDS011;10058;57.654;12.044;2023-08-31T21:12:30;0.10;;;0.10;;
19796;SDS011;10058;57.654;12.044;2023-08-31T21:14:55;0.10;;;0.10;;
19796;SDS011;10058;57.654;12.044;2023-08-31T21:17:21;0.10;;;0.10;;
19796;SDS011;10058;57.654;12.044;2023-08-31T21:19:46;0.00;;;0.00;;
19796;SDS011;10058;57.654;12.044;2023-08-31T21:22:11;0.10;;;0.10;;
19796;SDS011;10058;57.654;12.044;2023-08-31T21:24:37;0.10;;;0.10;;